Time;durP1;ratioP1;P1;durP2;ratioP2;P2;SDS_P1;SDS_P2;PMS_P1;PMS_P2;Temp;Humidity;BMP_temperature;BMP_pressure;BME280_temperature;BME280_humidity;BME280_pressure;Samples;Min_cycle;Max_cycle;Signal;HPM_P1;HPM_P2
2023/07/19 00:03:50;;;;;;;5.25;2.20;;;;;;;20.25;67.05;99437.28;12246152;19;20003;-81
2023/07/19 00:07:52;;;;;;;4.53;2.30;;;;;;;20.19;65.92;99435.78;12223793;19;20543;-82
2023/07/19 00:11:54;;;;;;;5.65;2.40;;;;;;;20.13;63.88;99437.88;12243902;19;20007;-81
2023/07/19 00:15:56;;;;;;;4.13;2.40;;;;;;;20.10;65.21;99448.91;12231484;19;20040;-81
2023/07/19 00:19:57;;;;;;;4.87;2.70;;;;;;;20.03;65.11;99447.41;12214791;19;20017;-81
2023/07/19 00:23:59;;;;;;;4.55;2.40;;;;;;;20.06;65.21;99450.69;12235615;19;20021;-81
2023/07/19 00:28:01;;;;;;;7.65;2.58;;;;;;;20.05;64.99;99449.88;12242066;19;20018;-82
2023/07/19 00:32:03;;;;;;;5.18;2.42;;;;;;;20.01;64.92;99460.88;12229640;19;20011;-80
2023/07/19 00:36:05;;;;;;;5.97;2.00;;;;;;;19.95;65.04;99459.34;12247015;19;20011;-80
2023/07/19 00:40:07;;;;;;;4.00;2.33;;;;;;;19.91;64.74;99455.56;12251152;19;20042;-81
2023/07/19 00:44:10;;;;;;;4.70;2.45;;;;;;;19.91;64.68;99458.34;12224155;19;20011;-80
2023/07/19 00:48:14;;;;;;;4.13;2.05;;;;;;;19.90;64.96;99459.50;12248270;19;20021;-81
2023/07/19 00:52:16;;;;;;;6.43;2.42;;;;;;;19.91;65.02;99463.94;12244988;19;20014;-82
2023/07/19 00:56:19;;;;;;;6.25;2.40;;;;;;;19.95;65.35;99462.16;12223761;19;20020;-81
2023/07/19 01:00:21;;;;;;;;;;;;;;;19.93;64.20;99472.84;12246129;19;20014;-81
2023/07/19 01:04:25;;;;;;;4.83;2.47;;;;;;;19.97;64.53;99462.66;12244407;19;19915;-79
2023/07/19 01:08:27;;;;;;;4.88;2.63;;;;;;;19.95;64.86;99459.34;12222473;19;20006;-81
2023/07/19 01:12:29;;;;;;;4.97;2.27;;;;;;;19.90;65.51;99451.13;12241115;19;20007;-81
2023/07/19 01:16:31;;;;;;;4.45;2.58;;;;;;;19.82;66.15;99451.88;12220132;19;20010;-82
2023/07/19 01:20:34;;;;;;;5.68;2.33;;;;;;;19.76;66.73;99444.78;12240458;19;20029;-80
2023/07/19 01:24:39;;;;;;;5.20;2.67;;;;;;;19.71;67.43;99440.13;12235441;19;20010;-80
2023/07/19 01:28:41;;;;;;;8.10;2.80;;;;;;;19.67;68.31;99438.31;12219230;19;20011;-79
2023/07/19 01:32:44;;;;;;;4.55;2.58;;;;;;;19.61;68.62;99442.38;12236237;19;20747;-80
2023/07/19 01:36:46;;;;;;;6.53;3.00;;;;;;;19.53;69.66;99441.97;12237202;19;20385;-80
2023/07/19 01:40:48;;;;;;;5.53;3.03;;;;;;;19.45;70.40;99436.31;12213953;19;20000;-80
2023/07/19 01:44:50;;;;;;;5.85;3.30;;;;;;;19.40;71.20;99437.28;12236531;19;20031;-80
2023/07/19 01:48:51;;;;;;;12.63;2.72;;;;;;;19.39;72.68;99432.00;12235573;19;20006;-81
2023/07/19 01:52:54;;;;;;;7.35;3.20;;;;;;;19.39;73.16;99423.63;12205475;19;20018;-80
2023/07/19 01:56:55;;;;;;;5.63;2.50;;;;;;;19.33;74.06;99420.97;12235891;19;20103;-80
2023/07/19 02:00:57;;;;;;;6.75;3.00;;;;;;;19.28;74.52;99425.88;12234403;19;20114;-80
2023/07/19 02:04:59;;;;;;;7.63;3.85;;;;;;;19.23;75.94;99414.81;12209159;19;20003;-80
2023/07/19 02:09:01;;;;;;;5.47;2.80;;;;;;;19.18;76.77;99410.16;12232042;19;20010;-79
2023/07/19 02:13:02;;;;;;;7.43;2.90;;;;;;;19.13;78.09;99413.09;12229022;19;20696;-80
2023/07/19 02:17:05;;;;;;;10.27;3.55;;;;;;;19.06;78.36;99413.50;12212850;19;20007;-80
2023/07/19 02:21:07;;;;;;;7.07;3.25;;;;;;;19.02;79.96;99414.47;12232112;19;20393;-82
2023/07/19 02:25:08;;;;;;;6.93;3.20;;;;;;;18.95;80.95;99398.16;12233464;19;20014;-80
2023/07/19 02:29:10;;;;;;;6.90;3.60;;;;;;;18.92;82.02;99406.31;12209324;19;20027;-81
2023/07/19 02:33:13;;;;;;;6.13;3.40;;;;;;;18.86;83.37;99400.06;12231397;19;20006;-80
2023/07/19 02:37:15;;;;;;;6.78;3.40;;;;;;;18.82;83.83;99390.66;12233474;19;20006;-81
2023/07/19 02:41:17;;;;;;;8.90;3.55;;;;;;;18.83;84.45;99406.28;12210815;19;20014;-81
2023/07/19 02:45:20;;;;;;;9.15;3.40;;;;;;;18.80;85.00;99404.94;12231967;19;20010;-81
2023/07/19 02:49:25;;;;;;;7.60;3.13;;;;;;;18.80;85.82;99406.88;12233149;19;20029;-80
2023/07/19 02:53:27;;;;;;;5.35;3.25;;;;;;;18.78;85.85;99414.75;12202283;19;20032;-80
2023/07/19 02:57:29;;;;;;;7.03;3.40;;;;;;;18.70;86.51;99413.50;12229996;19;20068;-80
2023/07/19 03:01:31;;;;;;;7.22;3.33;;;;;;;18.62;87.05;99434.59;12208136;19;20023;-80
2023/07/19 03:05:34;;;;;;;8.65;4.15;;;;;;;18.52;89.42;99440.38;12229724;19;20014;-79
2023/07/19 03:09:36;;;;;;;7.45;3.72;;;;;;;18.46;90.55;99433.28;12230260;19;20507;-79
2023/07/19 03:13:38;;;;;;;5.18;3.25;;;;;;;18.40;91.67;99448.47;12205058;19;20542;-80
2023/07/19 03:17:40;;;;;;;5.60;3.33;;;;;;;18.34;92.84;99455.28;12231201;19;20010;-80
2023/07/19 03:21:43;;;;;;;8.55;4.20;;;;;;;18.29;93.88;99458.16;12228559;19;20464;-79
2023/07/19 03:25:45;;;;;;;10.23;4.65;;;;;;;18.24;95.61;99459.13;12206606;19;20010;-80
2023/07/19 03:29:46;;;;;;;8.32;3.67;;;;;;;18.19;96.88;99462.81;12228311;19;20022;-79
2023/07/19 03:33:48;;;;;;;6.93;4.00;;;;;;;18.18;99.23;99469.53;12228740;19;20036;-80
2023/07/19 03:37:50;;;;;;;6.00;3.97;;;;;;;18.17;99.77;99467.03;12207500;19;20014;-81
2023/07/19 03:41:52;;;;;;;10.05;4.28;;;;;;;18.16;99.55;99466.22;12227217;19;20702;-79
2023/07/19 03:45:55;;;;;;;8.80;4.28;;;;;;;18.17;100.00;99469.84;12224431;19;20003;-81
2023/07/19 03:49:58;;;;;;;7.25;4.20;;;;;;;18.17;100.00;99455.88;12208011;19;20011;-80
2023/07/19 03:54:00;;;;;;;10.68;4.35;;;;;;;18.14;100.00;99462.09;12226978;19;20014;-80
2023/07/19 03:58:02;;;;;;;11.50;5.13;;;;;;;18.10;100.00;99464.66;12224415;19;20010;-79
2023/07/19 04:02:05;;;;;;;10.13;5.30;;;;;;;18.09;100.00;99465.81;12203582;19;20006;-79
2023/07/19 04:06:07;;;;;;;9.35;4.20;;;;;;;18.07;100.00;99464.47;12224647;19;20032;-80
2023/07/19 04:10:09;;;;;;;8.07;4.50;;;;;;;18.07;100.00;99465.28;12227685;19;20018;-80
2023/07/19 04:14:11;;;;;;;7.15;4.05;;;;;;;18.04;100.00;99471.47;12205194;19;20011;-80
2023/07/19 04:18:13;;;;;;;10.60;4.50;;;;;;;18.02;100.00;99476.53;12228043;19;20010;-80
2023/07/19 04:22:14;;;;;;;8.57;3.95;;;;;;;18.01;100.00;99474.06;12237464;19;20019;-79
2023/07/19 04:26:16;;;;;;;8.73;4.38;;;;;;;17.99;100.00;99478.00;12212247;19;20405;-79
2023/07/19 04:30:19;;;;;;;11.80;4.30;;;;;;;17.99;100.00;99475.22;12229135;19;20093;-80
2023/07/19 04:34:25;;;;;;;9.30;4.35;;;;;;;18.01;100.00;99477.69;12224929;19;20011;-79
2023/07/19 04:38:27;;;;;;;7.57;3.83;;;;;;;17.99;100.00;99482.72;12204408;19;20006;-80
2023/07/19 04:42:28;;;;;;;11.23;4.85;;;;;;;18.02;100.00;99493.25;12224776;19;20376;-79
2023/07/19 04:46:30;;;;;;;11.27;4.10;;;;;;;18.04;100.00;99496.56;12203537;19;20014;-80
2023/07/19 04:50:32;;;;;;;9.27;4.03;;;;;;;18.11;100.00;99501.75;12224685;19;20477;-79
2023/07/19 04:54:34;;;;;;;9.90;4.30;;;;;;;18.14;100.00;99513.09;12222032;19;20014;-80
2023/07/19 04:58:37;;;;;;;7.93;4.20;;;;;;;18.21;100.00;99512.72;12202894;19;20011;-79
2023/07/19 05:02:41;;;;;;;5.45;3.70;;;;;;;18.22;100.00;99514.38;12221383;19;20039;-81
2023/07/19 05:06:43;;;;;;;12.43;3.90;;;;;;;18.25;100.00;99519.31;12224025;19;20002;-80
2023/07/19 05:10:45;;;;;;;9.65;3.75;;;;;;;18.31;100.00;99518.09;12203233;19;20895;-80
2023/07/19 05:14:47;;;;;;;8.25;4.38;;;;;;;18.39;100.00;99517.38;12227626;19;20655;-80
2023/07/19 05:18:50;;;;;;;8.23;4.45;;;;;;;18.46;100.00;99519.75;12223278;19;20014;-79
2023/07/19 05:22:53;;;;;;;10.25;5.25;;;;;;;18.54;100.00;99513.47;12199441;19;20015;-80
2023/07/19 05:26:55;;;;;;;11.60;6.00;;;;;;;18.60;100.00;99520.59;12233004;19;20380;-80
2023/07/19 05:31:02;;;;;;;12.43;6.13;;;;;;;18.67;100.00;99509.00;12223118;19;20007;-80
2023/07/19 05:35:04;;;;;;;10.88;5.82;;;;;;;18.72;100.00;99513.66;12200312;19;20018;-80
2023/07/19 05:39:06;;;;;;;12.27;6.03;;;;;;;18.79;100.00;99509.34;12223008;19;20039;-80
2023/07/19 05:43:08;;;;;;;16.33;6.88;;;;;;;18.85;100.00;99516.47;12221940;19;20116;-81
2023/07/19 05:47:09;;;;;;;12.23;6.07;;;;;;;18.92;100.00;99509.63;12205172;19;20060;-81
2023/07/19 05:51:12;;;;;;;11.98;5.03;;;;;;;18.98;100.00;99513.97;12226180;19;20013;-81
2023/07/19 05:55:15;;;;;;;11.52;4.93;;;;;;;19.08;100.00;99520.16;12222602;19;20011;-81
2023/07/19 05:59:18;;;;;;;13.05;4.93;;;;;;;19.16;100.00;99513.00;12198343;19;20018;-80
2023/07/19 06:03:20;;;;;;;;;;;;;;;19.22;100.00;99522.09;12219984;19;20010;-81
2023/07/19 06:07:22;;;;;;;8.20;3.60;;;;;;;19.33;98.42;99524.34;12204535;19;19914;-80
2023/07/19 06:11:24;;;;;;;10.13;5.03;;;;;;;19.43;97.42;99514.88;12208558;19;20155;-80
2023/07/19 06:15:26;;;;;;;8.33;4.23;;;;;;;19.59;96.70;99515.34;12220367;19;20027;-81
2023/07/19 06:19:28;;;;;;;9.53;4.60;;;;;;;19.74;95.63;99508.56;12213376;19;20287;-81
2023/07/19 06:23:30;;;;;;;11.55;4.95;;;;;;;19.87;93.46;99510.47;12233914;19;20103;-80
2023/07/19 06:27:32;;;;;;;8.57;4.20;;;;;;;20.07;90.29;99503.50;12231711;19;20015;-80
2023/07/19 06:31:34;;;;;;;12.13;4.77;;;;;;;20.27;89.06;99516.13;12204369;19;20078;-81
2023/07/19 06:35:35;;;;;;;12.47;4.77;;;;;;;20.49;88.32;99515.22;12225865;19;20104;-81
2023/07/19 06:39:38;;;;;;;9.13;4.10;;;;;;;20.73;86.67;99514.03;12224896;19;20007;-82
2023/07/19 06:43:40;;;;;;;9.50;3.35;;;;;;;20.87;82.14;99512.75;12199923;19;20365;-80
2023/07/19 06:47:41;;;;;;;13.73;3.28;;;;;;;21.11;79.25;99511.47;12219889;19;20003;-80
2023/07/19 06:51:44;;;;;;;5.65;3.28;;;;;;;21.33;78.04;99516.94;12221102;19;20010;-81
2023/07/19 06:55:45;;;;;;;13.13;3.22;;;;;;;21.51;73.35;99522.59;12202167;19;20031;-80
2023/07/19 06:59:51;;;;;;;6.60;3.28;;;;;;;21.77;73.00;99522.56;12223205;19;20006;-80
2023/07/19 07:03:53;;;;;;;9.35;3.90;;;;;;;22.02;72.54;99518.91;12222909;19;20137;-80
2023/07/19 07:07:55;;;;;;;8.97;4.03;;;;;;;22.24;70.86;99515.06;12200502;19;20006;-81
2023/07/19 07:11:57;;;;;;;11.60;4.03;;;;;;;22.47;69.13;99520.44;12225801;19;20011;-80
2023/07/19 07:15:59;;;;;;;9.50;3.60;;;;;;;22.66;67.98;99509.63;12229034;19;20319;-81
2023/07/19 07:20:01;;;;;;;12.40;3.70;;;;;;;22.90;65.10;99527.84;12206213;19;20499;-80
2023/07/19 07:24:03;;;;;;;5.90;2.83;;;;;;;23.14;62.44;99530.03;12222570;19;20010;-80
2023/07/19 07:28:05;;;;;;;8.20;3.42;;;;;;;23.28;61.54;99530.59;12235053;19;20014;-80
2023/07/19 07:32:13;;;;;;;8.23;3.35;;;;;;;23.51;60.41;99528.28;12204558;19;20352;-80
2023/07/19 07:36:14;;;;;;;6.75;2.92;;;;;;;23.71;58.54;99525.81;12223866;19;20015;-78
2023/07/19 07:40:17;;;;;;;6.38;2.60;;;;;;;23.90;58.65;99520.50;12222576;19;20018;-79
2023/07/19 07:44:19;;;;;;;8.48;3.40;;;;;;;24.09;56.42;99520.81;12199414;19;20006;-79
2023/07/19 07:48:22;;;;;;;6.43;2.63;;;;;;;24.32;55.21;99517.56;12250777;19;20010;-80
2023/07/19 07:52:24;;;;;;;7.85;2.90;;;;;;;24.44;53.15;99511.19;12246157;19;20014;-80
2023/07/19 07:56:26;;;;;;;5.88;2.83;;;;;;;24.65;53.48;99514.72;12221065;19;20063;-80
2023/07/19 08:00:28;;;;;;;5.97;2.50;;;;;;;24.87;51.66;99501.34;12229530;19;20058;-80
2023/07/19 08:04:30;;;;;;;5.57;2.47;;;;;;;25.02;51.21;99495.81;12206302;19;20069;-81
2023/07/19 08:08:32;;;;;;;8.52;2.85;;;;;;;25.28;50.91;99494.59;12230686;19;20010;-80
2023/07/19 08:12:33;;;;;;;5.40;2.85;;;;;;;25.54;49.98;99487.72;12226377;19;20003;-80
2023/07/19 08:16:36;;;;;;;7.10;3.30;;;;;;;25.69;49.21;99475.66;12198866;19;20468;-80
2023/07/19 08:20:38;;;;;;;6.75;3.30;;;;;;;25.82;48.43;99467.97;12220565;19;20010;-80
2023/07/19 08:24:40;;;;;;;;;;;;;;;25.98;48.80;99468.03;12218912;19;20007;-80
2023/07/19 08:28:44;;;;;;;5.30;2.78;;;;;;;26.25;46.78;99467.13;12202236;19;19915;-80
2023/07/19 08:32:47;;;;;;;8.23;3.00;;;;;;;26.58;45.65;99463.97;12223421;19;20646;-80
2023/07/19 08:36:49;;;;;;;6.28;2.67;;;;;;;26.80;45.72;99454.03;12225187;19;20035;-79
2023/07/19 08:41:11;;;;;;;6.22;2.60;;;;;;;27.07;43.96;99461.88;12201567;19;20072;-80
2023/07/19 08:45:14;;;;;;;5.20;2.70;;;;;;;27.22;43.18;99459.03;12221056;19;20006;-80
2023/07/19 08:49:17;;;;;;;6.35;3.30;;;;;;;27.33;42.39;99452.78;12224438;19;20025;-80
2023/07/19 08:53:19;;;;;;;7.40;2.83;;;;;;;27.49;41.72;99448.72;12205241;19;20015;-80
2023/07/19 08:57:22;;;;;;;6.85;3.13;;;;;;;27.66;41.95;99438.09;12235553;19;20054;-80
2023/07/19 09:01:24;;;;;;;7.15;2.40;;;;;;;27.87;40.57;99446.22;12232766;19;20010;-81
2023/07/19 09:05:29;;;;;;;5.57;2.60;;;;;;;28.01;40.53;99449.34;12209915;19;20372;-80
2023/07/19 09:09:32;;;;;;;5.50;2.92;;;;;;;27.95;39.33;99442.34;12228500;19;20003;-80
2023/07/19 09:13:37;;;;;;;7.70;3.08;;;;;;;27.98;39.01;99441.59;12205955;19;20034;-82
2023/07/19 09:17:45;;;;;;;4.97;2.22;;;;;;;28.33;37.44;99440.59;12222186;19;20017;-81
2023/07/19 09:21:49;;;;;;;5.15;2.55;;;;;;;28.56;38.12;99441.44;12223423;19;20014;-82
2023/07/19 09:25:53;;;;;;;4.85;2.88;;;;;;;28.60;37.90;99436.63;12202958;19;20028;-82
2023/07/19 09:29:55;;;;;;;8.73;2.78;;;;;;;28.80;37.17;99443.03;12225263;19;20010;-81
2023/07/19 09:33:57;;;;;;;;;;;;;;;28.83;36.24;99444.28;12226115;19;20023;-81
2023/07/19 09:37:59;;;;;;;5.00;2.80;;;;;;;29.05;36.38;99440.56;12203479;19;19915;-80
2023/07/19 09:42:03;;;;;;;8.20;2.72;;;;;;;29.28;36.56;99431.16;12227585;19;20255;-80
2023/07/19 09:46:05;;;;;;;4.15;2.55;;;;;;;29.48;36.07;99429.81;12225358;19;20006;-81
2023/07/19 09:50:08;;;;;;;6.28;2.45;;;;;;;29.70;35.34;99427.25;12204865;19;20003;-81
2023/07/19 09:54:14;;;;;;;7.63;3.20;;;;;;;29.96;35.47;99418.59;12223582;19;20377;-79
2023/07/19 09:58:17;;;;;;;8.60;3.10;;;;;;;30.11;35.83;99413.06;12213155;19;20010;-82
2023/07/19 10:02:21;;;;;;;9.23;3.10;;;;;;;30.35;35.24;99409.66;12218821;19;20007;-80
2023/07/19 10:06:31;;;;;;;6.40;3.33;;;;;;;30.58;35.17;99405.75;12222578;19;20499;-81
2023/07/19 10:10:41;;;;;;;5.82;2.65;;;;;;;30.97;32.83;99396.72;12197050;19;20028;-80
2023/07/19 10:14:59;;;;;;;6.57;3.03;;;;;;;31.63;31.83;99397.44;12222269;19;20003;-81
2023/07/19 10:19:11;;;;;;;10.65;2.92;;;;;;;31.32;31.58;99388.34;12198921;19;20027;-81
2023/07/19 10:23:14;;;;;;;6.57;2.85;;;;;;;31.00;31.08;99390.25;12220171;19;20003;-81
2023/07/19 10:27:35;;;;;;;5.25;2.47;;;;;;;30.69;32.06;99388.78;12226478;19;20108;-81
2023/07/19 10:31:37;;;;;;;6.10;2.33;;;;;;;30.31;32.29;99388.09;12201649;19;20475;-82
2023/07/19 10:35:40;;;;;;;7.90;2.58;;;;;;;29.99;33.58;99382.94;12222382;19;20014;-81
2023/07/19 10:39:41;;;;;;;6.65;2.22;;;;;;;30.12;33.21;99377.75;12203622;19;20023;-81
2023/07/19 10:43:43;;;;;;;7.22;2.63;;;;;;;30.48;33.15;99378.88;12218954;19;20491;-80
2023/07/19 10:47:52;;;;;;;8.98;2.30;;;;;;;30.59;32.87;99361.91;12221380;19;20021;-81
2023/07/19 10:51:55;;;;;;;8.57;2.72;;;;;;;30.85;32.75;99360.91;12197996;19;20014;-80
2023/07/19 10:56:00;;;;;;;9.68;2.42;;;;;;;30.73;32.31;99356.31;12219953;19;20372;-81
2023/07/19 11:00:09;;;;;;;8.40;2.88;;;;;;;30.62;32.68;99361.13;12216872;19;20010;-80
2023/07/19 11:04:11;;;;;;;10.00;2.60;;;;;;;30.97;32.13;99351.19;12196464;19;20017;-80
2023/07/19 11:08:44;;;;;;;;;;;;;;;31.74;31.64;99346.19;12216472;19;20006;-81
2023/07/19 11:12:46;;;;;;;5.13;2.55;;;;;;;31.79;30.64;99343.75;12196285;19;20264;-80
2023/07/19 11:16:48;;;;;;;6.05;2.55;;;;;;;31.27;31.31;99331.00;12228865;19;20071;-81
2023/07/19 11:20:50;;;;;;;4.07;2.45;;;;;;;31.11;31.15;99337.00;12214090;19;20619;-81
2023/07/19 11:24:53;;;;;;;;;;;;;;;30.83;31.84;99332.03;12199312;19;20019;-81
2023/07/19 11:28:58;;;;;;;5.88;2.70;;;;;;;30.68;31.82;99335.97;12219377;19;19915;-83
2023/07/19 11:33:08;;;;;;;6.55;2.60;;;;;;;30.48;32.64;99330.56;12217493;19;20017;-80
2023/07/19 11:37:16;;;;;;;6.13;2.35;;;;;;;30.67;31.88;99329.47;12197570;19;20448;-82
2023/07/19 11:41:18;;;;;;;4.35;2.50;;;;;;;31.08;31.80;99320.75;12216787;19;20675;-82
2023/07/19 11:45:23;;;;;;;5.80;2.63;;;;;;;31.72;30.96;99320.97;12216687;19;20039;-81
2023/07/19 11:49:25;;;;;;;5.55;2.70;;;;;;;32.76;29.27;99308.72;12197814;19;20002;-81
2023/07/19 11:53:27;;;;;;;4.88;2.50;;;;;;;33.56;28.89;99294.50;12215847;19;20007;-81
2023/07/19 11:57:29;;;;;;;4.57;2.22;;;;;;;33.52;28.24;99290.03;12218866;19;20021;-81
2023/07/19 12:01:31;;;;;;;6.00;2.63;;;;;;;33.17;28.41;99291.84;12191173;19;20010;-81
2023/07/19 12:05:34;;;;;;;4.53;2.65;;;;;;;33.50;28.01;99281.88;12214925;19;20356;-81
2023/07/19 12:09:35;;;;;;;7.47;3.00;;;;;;;34.15;27.17;99281.38;12215389;19;20483;-81
2023/07/19 12:13:37;;;;;;;8.25;2.40;;;;;;;34.45;26.42;99272.94;12186956;19;20011;-81
2023/07/19 12:17:39;;;;;;;5.50;2.80;;;;;;;34.12;26.84;99260.19;12214793;19;20006;-82
2023/07/19 12:21:41;;;;;;;7.45;3.03;;;;;;;33.68;27.11;99258.09;12186077;19;20007;-82
2023/07/19 12:25:43;;;;;;;7.15;2.45;;;;;;;33.49;27.45;99239.44;12219530;19;20559;-81
2023/07/19 12:29:44;;;;;;;10.27;3.10;;;;;;;33.49;28.00;99236.56;12225608;19;20020;-82
2023/07/19 12:34:02;;;;;;;5.65;2.80;;;;;;;33.30;28.18;99224.47;12197677;19;20014;-81
2023/07/19 12:38:04;;;;;;;3.22;2.25;;;;;;;32.77;28.22;99231.25;12219858;19;20372;-81
2023/07/19 12:42:07;;;;;;;7.18;3.25;;;;;;;32.15;29.02;99235.47;12222560;19;20006;-81
2023/07/19 12:46:09;;;;;;;9.48;2.63;;;;;;;32.74;28.99;99223.53;12197361;19;20045;-81
2023/07/19 12:50:11;;;;;;;4.75;2.67;;;;;;;34.73;27.63;99210.91;12220375;19;20006;-82
2023/07/19 12:54:14;;;;;;;9.93;2.92;;;;;;;36.33;24.93;99214.56;12223008;19;20022;-82
2023/07/19 12:58:15;;;;;;;5.97;2.80;;;;;;;37.71;23.82;99200.47;12202764;19;20011;-82
2023/07/19 13:02:17;;;;;;;5.55;2.60;;;;;;;38.60;22.70;99197.25;12223053;19;20066;-83
2023/07/19 13:06:21;;;;;;;6.00;2.70;;;;;;;39.30;21.59;99193.50;12229589;19;20388;-82
2023/07/19 13:10:23;;;;;;;4.50;2.30;;;;;;;38.68;21.10;99195.81;12210457;19;20017;-83
2023/07/19 13:14:25;;;;;;;4.75;2.63;;;;;;;37.84;22.00;99195.63;12228721;19;20514;-83
2023/07/19 13:18:27;;;;;;;4.68;2.33;;;;;;;36.37;22.38;99195.22;12226722;19;20014;-82
2023/07/19 13:22:29;;;;;;;5.28;2.58;;;;;;;34.90;23.76;99197.63;12202301;19;20019;-83
2023/07/19 13:26:31;;;;;;;6.07;2.58;;;;;;;33.40;25.38;99211.34;12224170;19;20031;-81
2023/07/19 13:30:35;;;;;;;4.75;2.80;;;;;;;32.26;26.49;99291.69;12226687;19;20006;-80
2023/07/19 13:34:37;;;;;;;12.30;3.20;;;;;;;29.80;41.17;99310.09;12204450;19;20042;-81
2023/07/19 13:38:38;;;;;;;;;;;;;;;24.79;75.92;99319.94;12234867;19;20011;-84
2023/07/19 13:42:43;;;;;;;14.02;4.88;;;;;;;22.48;96.42;99311.53;12202715;19;19935;-78
2023/07/19 13:46:45;;;;;;;7.38;3.17;;;;;;;21.78;97.59;99305.47;12224170;19;20021;-83
2023/07/19 13:50:47;;;;;;;10.30;4.25;;;;;;;21.66;100.00;99271.72;12224729;19;20010;-83
2023/07/19 13:54:49;;;;;;;11.17;3.80;;;;;;;21.78;100.00;99266.22;12203007;19;20007;-82
2023/07/19 13:58:51;;;;;;;11.13;3.78;;;;;;;21.98;100.00;99251.44;12223850;19;20119;-82
2023/07/19 14:02:53;;;;;;;10.63;4.47;;;;;;;22.27;100.00;99250.56;12221926;19;20022;-82
2023/07/19 14:06:55;;;;;;;11.03;5.07;;;;;;;22.81;100.00;99246.16;12203551;19;20010;-82
2023/07/19 14:10:56;;;;;;;11.97;3.63;;;;;;;23.38;100.00;99237.81;12224697;19;20262;-82
2023/07/19 14:15:00;;;;;;;4.97;3.13;;;;;;;24.12;100.00;99226.53;12226798;19;20357;-84
2023/07/19 14:19:01;;;;;;;10.40;3.70;;;;;;;25.11;100.00;99213.75;12211695;19;20382;-83
2023/07/19 14:23:04;;;;;;;7.53;3.22;;;;;;;25.41;100.00;99231.09;12235656;19;20078;-84
2023/07/19 14:27:06;;;;;;;10.18;3.67;;;;;;;25.20;100.00;99228.53;12236237;19;20010;-86
2023/07/19 14:31:08;;;;;;;13.27;3.92;;;;;;;24.81;100.00;99247.16;12218022;19;20013;-85
2023/07/19 14:35:10;;;;;;;5.07;3.08;;;;;;;24.16;100.00;99254.84;12241131;19;20018;-85
2023/07/19 14:39:12;;;;;;;9.77;3.30;;;;;;;23.86;100.00;99266.34;12244184;19;20010;-84
2023/07/19 14:43:16;;;;;;;5.55;2.72;;;;;;;23.88;100.00;99255.53;12226892;19;20007;-85
2023/07/19 14:47:18;;;;;;;10.35;3.50;;;;;;;23.90;100.00;99250.38;12246760;19;20011;-84
2023/07/19 14:51:20;;;;;;;9.07;2.85;;;;;;;23.85;100.00;99248.63;12244385;19;20018;-85
2023/07/19 14:55:22;;;;;;;6.65;3.22;;;;;;;24.03;100.00;99235.13;12226997;19;20010;-85
2023/07/19 14:59:26;;;;;;;9.93;3.10;;;;;;;24.78;100.00;99234.59;12250122;19;20011;-84
2023/07/19 15:03:29;;;;;;;5.75;2.90;;;;;;;25.30;97.62;99235.63;12249240;19;20036;-85
2023/07/19 15:07:31;;;;;;;5.72;2.40;;;;;;;25.55;94.33;99235.44;12228365;19;20003;-85
2023/07/19 15:16:31;;;;;;;7.25;2.50;;;;;;;26.89;73.28;99230.50;12210202;19;20011;-82
2023/07/19 15:20:33;;;;;;;5.82;2.67;;;;;;;27.23;67.77;99234.41;12223509;19;20002;-80
2023/07/19 15:24:35;;;;;;;6.32;2.88;;;;;;;27.16;67.07;99228.63;12224665;19;20618;-83
2023/07/19 15:28:38;;;;;;;7.25;2.63;;;;;;;27.21;62.89;99227.47;12207263;19;20010;-82
2023/07/19 15:32:41;;;;;;;10.73;2.72;;;;;;;27.08;65.63;99231.66;12224276;19;20647;-81
2023/07/19 15:36:43;;;;;;;5.57;2.47;;;;;;;26.64;62.27;99237.63;12200931;19;20002;-81
2023/07/19 15:40:48;;;;;;;4.65;2.63;;;;;;;26.19;63.04;99242.69;12219541;19;20011;-83
2023/07/19 15:44:51;;;;;;;5.25;2.90;;;;;;;26.02;63.40;99243.91;12241205;19;20006;-83
2023/07/19 15:48:53;;;;;;;7.07;2.88;;;;;;;25.86;59.53;99246.75;12213234;19;20015;-83
2023/07/19 15:52:55;;;;;;;5.65;3.15;;;;;;;25.87;58.51;99253.22;12231862;19;20441;-83
2023/07/19 15:56:57;;;;;;;;;;;;;;;25.93;59.86;99268.69;12275450;19;20013;-81
2023/07/19 16:01:26;;;;;;;5.13;2.55;;;;;;;26.02;55.77;99254.38;12253140;19;19928;-82
2023/07/19 16:05:28;;;;;;;6.00;2.53;;;;;;;26.25;56.95;99268.63;12271048;19;20031;-80
2023/07/19 16:09:29;;;;;;;5.18;2.60;;;;;;;26.44;53.70;99270.66;12221664;19;20010;-83
2023/07/19 16:13:32;;;;;;;5.50;2.80;;;;;;;26.53;53.22;99262.81;12196377;19;20022;-81
2023/07/19 16:17:33;;;;;;;6.68;3.13;;;;;;;26.56;53.21;99268.56;12235259;19;20483;-84
2023/07/19 16:21:35;;;;;;;6.93;3.22;;;;;;;26.63;52.62;99269.91;12222253;19;20039;-83
2023/07/19 16:25:37;;;;;;;5.50;2.65;;;;;;;26.63;52.63;99267.91;12193667;19;20414;-82
2023/07/19 16:29:39;;;;;;;8.02;3.70;;;;;;;26.65;52.93;99268.34;12213516;19;20472;-83
2023/07/19 16:33:41;;;;;;;10.90;2.58;;;;;;;26.57;51.20;99278.69;12198109;19;20018;-82
2023/07/19 16:37:44;;;;;;;9.60;3.30;;;;;;;26.51;51.80;99274.50;12223312;19;20069;-82
2023/07/19 16:41:46;;;;;;;6.68;2.33;;;;;;;26.57;52.77;99280.69;12221316;19;20392;-82
2023/07/19 16:45:48;;;;;;;7.55;2.75;;;;;;;26.56;51.44;99279.88;12199028;19;20007;-83
2023/07/19 16:49:49;;;;;;;7.55;2.95;;;;;;;26.50;52.17;99281.34;12232728;19;20014;-83
2023/07/19 16:53:51;;;;;;;8.52;3.45;;;;;;;26.53;51.33;99279.78;12219686;19;20007;-83
2023/07/19 16:57:53;;;;;;;7.25;3.15;;;;;;;26.41;51.95;99286.34;12195175;19;20010;-83
2023/07/19 17:01:55;;;;;;;5.55;3.03;;;;;;;26.31;52.70;99284.91;12217730;19;20015;-80
2023/07/19 17:05:57;;;;;;;11.70;3.05;;;;;;;26.22;53.06;99281.47;12217157;19;20010;-81
2023/07/19 17:09:58;;;;;;;7.30;2.60;;;;;;;26.05;52.59;99287.53;12202038;19;20349;-81
2023/07/19 17:14:00;;;;;;;6.65;2.58;;;;;;;25.93;53.37;99288.44;12229057;19;20022;-81
2023/07/19 17:18:04;;;;;;;10.13;6.20;;;;;;;25.81;53.72;99292.16;12231692;19;20014;-82
2023/07/19 17:22:08;;;;;;;6.90;3.15;;;;;;;25.65;52.70;99302.63;12210862;19;20015;-79
2023/07/19 17:26:11;;;;;;;8.90;3.63;;;;;;;25.31;53.56;99304.94;12224406;19;20702;-81
2023/07/19 17:30:13;;;;;;;11.20;4.20;;;;;;;25.26;53.26;99305.22;12247787;19;20499;-82
2023/07/19 17:34:16;;;;;;;6.80;3.45;;;;;;;25.17;53.95;99310.22;12215281;19;20018;-81
2023/07/19 17:38:17;;;;;;;;;;;;;;;25.06;53.47;99315.50;12230567;19;20010;-82
2023/07/19 17:42:20;;;;;;;10.52;3.40;;;;;;;25.01;53.50;99313.75;12228160;19;20370;-83
2023/07/19 17:46:22;;;;;;;6.38;3.42;;;;;;;25.01;52.19;99325.00;12206931;19;20011;-83
2023/07/19 17:50:24;;;;;;;8.15;3.42;;;;;;;24.88;53.51;99331.88;12231481;19;20089;-83
2023/07/19 17:54:27;;;;;;;8.45;3.33;;;;;;;24.74;53.24;99334.28;12229994;19;20010;-81
2023/07/19 17:58:29;;;;;;;5.78;2.85;;;;;;;24.65;53.27;99344.88;12210809;19;20019;-82
2023/07/19 18:02:31;;;;;;;6.47;3.47;;;;;;;24.70;53.23;99339.00;12242220;19;20007;-80
2023/07/19 18:06:32;;;;;;;9.23;2.67;;;;;;;25.11;51.57;99339.81;12244948;19;20010;-80
2023/07/19 18:10:39;;;;;;;6.50;2.83;;;;;;;25.34;50.88;99343.69;12222499;19;20010;-80
2023/07/19 18:14:43;;;;;;;8.18;3.10;;;;;;;25.36;48.84;99341.34;12242906;19;20260;-82
2023/07/19 18:18:45;;;;;;;8.20;3.25;;;;;;;25.13;50.38;99345.88;12222522;19;20010;-80
2023/07/19 18:22:51;;;;;;;6.25;2.55;;;;;;;25.01;50.73;99350.38;12242246;19;20019;-81
2023/07/19 18:26:53;;;;;;;7.38;2.50;;;;;;;24.86;50.65;99342.69;12237769;19;20008;-80
2023/07/19 18:30:55;;;;;;;5.72;2.38;;;;;;;24.72;51.52;99359.19;12219178;19;20010;-82
2023/07/19 18:34:56;;;;;;;7.17;2.93;;;;;;;24.60;51.76;99359.19;12236738;19;20348;-81
2023/07/19 18:38:58;;;;;;;9.33;2.20;;;;;;;24.40;51.34;99355.34;12242742;19;20269;-83
2023/07/19 18:43:00;;;;;;;7.97;2.17;;;;;;;24.23;51.85;99368.47;12210002;19;20342;-81
2023/07/19 18:47:03;;;;;;;4.57;2.33;;;;;;;23.98;52.82;99373.28;12228249;19;20019;-81
2023/07/19 18:51:11;;;;;;;6.15;2.45;;;;;;;23.85;51.86;99374.41;12230972;19;20018;-81
2023/07/19 18:55:13;;;;;;;6.50;1.90;;;;;;;23.71;51.14;99380.38;12202494;19;20007;-83